РПИ Петропавловск-Камчатский

Сквоки, район применения ICAO EUR-J: ПетропавловскКамчатский 6630-6657

Лого Петропавловск-Камчатский
Руководитель РПИ

Sergey Balandin*

Инструкторы РПИ
Ivan Aksenenko (Instructor)
Sergey Balandin (Senior Instructor)
Входит в состав
ЗЦ Хабаровск

Диспетчеры РПИ

Диспетчер Рейтинг Допуски *
Sergey Balandin Senior Instructor UHPP_CTR

Аэропорты РПИ

ICAO Город Название Погода
UHPP Петропавловск-Камчатский Елизово UHPP 161830Z 32009MPS 9999 BKN071 M06/M16 Q1009 R34L/CLRD70 NOSIG RMK QFE753/1004